createdAt,value
2018-10-11T00:01:36.918Z,68.28
2018-10-11T00:04:06.286Z,67.71
2018-10-11T00:06:34.981Z,66.89
2018-10-11T00:09:04.025Z,66.85
2018-10-11T00:11:32.524Z,66.27
2018-10-11T00:14:01.109Z,67.54
2018-10-11T00:16:29.720Z,68.64
2018-10-11T00:18:58.196Z,68.22
2018-10-11T00:21:26.692Z,66.22
2018-10-11T00:23:55.441Z,68.82
2018-10-11T00:26:24.000Z,69.37
2018-10-11T00:28:52.565Z,68.65
2018-10-11T00:31:21.281Z,69.21
2018-10-11T00:33:49.836Z,68.60
2018-10-11T00:36:18.602Z,66.98
2018-10-11T00:38:47.194Z,67.92
2018-10-11T00:41:15.739Z,67.77
2018-10-11T00:43:44.274Z,67.78
2018-10-11T00:46:12.869Z,68.54
2018-10-11T00:48:41.517Z,68.01
2018-10-11T00:51:10.134Z,66.84
2018-10-11T00:53:38.725Z,63.98
2018-10-11T00:56:08.736Z,64.11
2018-10-11T00:58:37.285Z,64.41
2018-10-11T01:01:05.904Z,63.88
2018-10-11T01:03:35.531Z,65.25
2018-10-11T01:06:04.197Z,67.32
2018-10-11T01:08:32.740Z,67.53
2018-10-11T01:11:01.221Z,63.72
2018-10-11T01:13:29.641Z,64.55
2018-10-11T01:15:58.192Z,64.04
2018-10-11T01:18:26.856Z,64.50
2018-10-11T01:20:55.607Z,64.25
2018-10-11T01:23:24.099Z,63.80
2018-10-11T01:25:52.633Z,66.24
2018-10-11T01:28:21.139Z,66.73
2018-10-11T01:30:54.862Z,63.79
2018-10-11T01:33:23.519Z,62.82
2018-10-11T01:35:52.228Z,62.85
2018-10-11T01:38:20.735Z,64.65
2018-10-11T01:40:49.217Z,63.92
2018-10-11T01:43:17.732Z,64.04
2018-10-11T01:45:46.297Z,63.96
2018-10-11T01:48:14.819Z,63.66
2018-10-11T01:50:43.338Z,63.27
2018-10-11T01:53:11.814Z,63.13
2018-10-11T01:55:40.224Z,63.02
2018-10-11T01:58:08.827Z,63.65
2018-10-11T02:00:37.400Z,63.71
2018-10-11T02:03:05.938Z,62.92
2018-10-11T02:05:35.156Z,64.39
2018-10-11T02:08:03.705Z,63.77
2018-10-11T02:10:32.272Z,65.38
2018-10-11T02:13:01.182Z,64.25
2018-10-11T02:15:29.744Z,65.62
2018-10-11T02:17:58.757Z,65.10
2018-10-11T02:20:27.908Z,64.92
2018-10-11T02:22:56.508Z,64.27
2018-10-11T02:25:25.035Z,63.19
2018-10-11T02:27:53.788Z,63.68
2018-10-11T02:30:22.274Z,64.34
2018-10-11T02:32:50.833Z,65.11
2018-10-11T02:35:19.315Z,65.21
2018-10-11T02:37:47.898Z,65.43
2018-10-11T02:40:16.360Z,65.79
2018-10-11T02:42:44.921Z,66.50
2018-10-11T02:45:13.408Z,66.06
2018-10-11T02:47:41.887Z,65.55
2018-10-11T02:50:10.606Z,65.80
2018-10-11T02:52:39.111Z,66.09
2018-10-11T02:55:07.616Z,65.57
2018-10-11T02:57:47.412Z,67.14
2018-10-11T03:00:29.713Z,65.04
2018-10-11T03:03:00.490Z,65.68
2018-10-11T03:05:29.037Z,67.21
2018-10-11T03:07:57.615Z,67.45
2018-10-11T03:10:33.127Z,66.97
2018-10-11T03:13:01.589Z,65.63
2018-10-11T03:15:30.050Z,66.00
2018-10-11T03:17:58.489Z,66.56
2018-10-11T03:20:27.271Z,66.66
2018-10-11T03:22:56.007Z,65.08
2018-10-11T03:25:24.698Z,67.71
2018-10-11T03:27:53.211Z,66.11
2018-10-11T03:30:26.461Z,66.22
2018-10-11T03:32:54.969Z,66.19
2018-10-11T03:35:23.434Z,66.29
2018-10-11T03:37:52.008Z,66.14
2018-10-11T03:40:20.540Z,66.86
2018-10-11T03:42:49.093Z,65.58
2018-10-11T03:45:17.569Z,65.64
2018-10-11T03:47:46.072Z,66.02
2018-10-11T03:50:14.565Z,65.37
2018-10-11T03:52:44.088Z,64.74
2018-10-11T03:55:12.609Z,65.42
2018-10-11T03:57:41.097Z,65.84
2018-10-11T04:00:09.637Z,65.25
2018-10-11T04:02:38.117Z,66.31
2018-10-11T04:05:06.601Z,65.75
2018-10-11T04:07:35.200Z,66.53
2018-10-11T04:10:03.692Z,66.00
2018-10-11T04:12:32.182Z,67.28
2018-10-11T04:15:00.673Z,66.14
2018-10-11T04:17:29.228Z,65.56
2018-10-11T04:19:57.975Z,66.17
2018-10-11T04:22:26.545Z,66.79
2018-10-11T04:24:55.185Z,66.75
2018-10-11T04:27:23.673Z,65.50
2018-10-11T04:29:52.203Z,65.55
2018-10-11T04:32:20.701Z,66.62
2018-10-11T04:34:49.185Z,66.62
2018-10-11T04:37:17.637Z,67.83
2018-10-11T04:39:46.133Z,67.52
2018-10-11T04:42:14.656Z,68.94
2018-10-11T04:44:43.224Z,68.41
2018-10-11T04:47:11.737Z,68.79
2018-10-11T04:49:40.281Z,69.25
2018-10-11T04:52:08.800Z,69.22
2018-10-11T04:54:37.396Z,69.93
2018-10-11T04:57:05.952Z,70.76
2018-10-11T04:59:35.572Z,69.93
2018-10-11T05:02:04.456Z,70.56
2018-10-11T05:04:33.017Z,68.51
2018-10-11T05:07:01.559Z,68.98
2018-10-11T05:09:30.118Z,67.66
2018-10-11T05:11:58.629Z,66.92
2018-10-11T05:14:27.263Z,67.03
2018-10-11T05:16:55.868Z,67.12
2018-10-11T05:19:24.754Z,67.41
2018-10-11T05:21:53.304Z,67.00
2018-10-11T05:24:21.879Z,66.71
2018-10-11T05:26:50.391Z,66.48
2018-10-11T05:29:19.067Z,68.33
2018-10-11T05:31:47.694Z,73.39
2018-10-11T05:34:16.201Z,68.96
2018-10-11T05:36:44.708Z,68.71
2018-10-11T05:39:13.177Z,66.86
2018-10-11T05:41:41.686Z,68.58
2018-10-11T05:44:10.051Z,68.35
2018-10-11T05:46:38.513Z,67.76
2018-10-11T05:49:07.015Z,66.10
2018-10-11T05:51:35.744Z,69.42
2018-10-11T05:54:04.838Z,69.21
2018-10-11T05:56:35.977Z,65.93
2018-10-11T05:59:04.745Z,66.43
2018-10-11T06:01:33.617Z,65.48
2018-10-11T06:04:02.918Z,65.52
2018-10-11T06:06:31.454Z,65.03
2018-10-11T06:09:00.221Z,64.81
2018-10-11T06:11:28.853Z,64.79
2018-10-11T06:13:57.352Z,66.05
2018-10-11T06:16:25.764Z,62.40
2018-10-11T06:18:54.201Z,61.85
2018-10-11T06:21:22.783Z,63.59
2018-10-11T06:23:51.348Z,62.77
2018-10-11T06:26:19.784Z,64.98
2018-10-11T06:28:48.215Z,63.00
2018-10-11T06:31:16.751Z,63.45
2018-10-11T06:33:45.500Z,63.82
2018-10-11T06:36:14.517Z,63.39
2018-10-11T06:38:43.019Z,61.08
2018-10-11T06:41:11.523Z,59.55
2018-10-11T06:43:40.221Z,57.48
2018-10-11T06:46:08.810Z,59.75
2018-10-11T06:48:37.427Z,54.84
2018-10-11T06:51:05.916Z,58.39
2018-10-11T06:53:34.478Z,59.21
2018-10-11T06:56:02.990Z,57.47
2018-10-11T06:58:31.750Z,56.88
2018-10-11T07:01:00.224Z,57.27
2018-10-11T07:03:28.757Z,56.34
2018-10-11T07:05:57.215Z,57.45
2018-10-11T07:08:25.693Z,57.18
2018-10-11T07:10:54.175Z,54.99
2018-10-11T07:13:22.724Z,56.47
2018-10-11T07:15:51.291Z,55.89
2018-10-11T07:18:19.834Z,55.17
2018-10-11T07:20:48.425Z,55.92
2018-10-11T07:23:17.022Z,55.51
2018-10-11T07:25:45.753Z,55.96
2018-10-11T07:28:14.580Z,56.13
2018-10-11T07:30:43.279Z,55.34
2018-10-11T07:33:11.974Z,55.41
2018-10-11T07:35:40.592Z,54.08
2018-10-11T07:38:09.288Z,53.92
2018-10-11T07:40:37.838Z,54.73
2018-10-11T07:43:06.442Z,56.01
2018-10-11T07:45:34.945Z,54.53
2018-10-11T07:48:03.456Z,52.81
2018-10-11T07:50:31.964Z,54.74
2018-10-11T07:53:00.553Z,52.42
2018-10-11T07:55:29.035Z,53.23
2018-10-11T07:57:57.548Z,52.97
2018-10-11T08:00:26.121Z,52.38
2018-10-11T08:02:54.734Z,53.82
2018-10-11T08:05:23.271Z,52.25
2018-10-11T08:07:51.835Z,53.25
2018-10-11T08:10:20.386Z,51.88
2018-10-11T08:12:48.833Z,53.58
2018-10-11T08:15:17.302Z,53.98
2018-10-11T08:17:46.106Z,53.04
2018-10-11T08:20:14.392Z,53.80
2018-10-11T08:22:42.788Z,52.11
2018-10-11T08:25:11.419Z,52.24
2018-10-11T08:27:39.813Z,51.03
2018-10-11T08:30:08.468Z,45.45
2018-10-11T08:32:37.144Z,41.30
2018-10-11T08:35:05.838Z,38.54
2018-10-11T08:37:34.524Z,38.80
2018-10-11T08:40:02.951Z,38.79
2018-10-11T08:42:31.449Z,34.90
2018-10-11T08:44:59.914Z,36.18
2018-10-11T08:47:28.403Z,36.02
2018-10-11T08:49:56.860Z,37.66
2018-10-11T08:52:25.355Z,37.64
2018-10-11T08:54:54.040Z,36.52
2018-10-11T08:57:22.933Z,34.80
2018-10-11T08:59:51.473Z,32.14
2018-10-11T09:02:20.084Z,35.09
2018-10-11T09:04:48.626Z,36.01
2018-10-11T09:07:17.226Z,37.02
2018-10-11T09:09:53.436Z,36.32
2018-10-11T09:12:14.609Z,37.58
2018-10-11T09:14:43.157Z,39.42
2018-10-11T09:17:11.615Z,38.04
2018-10-11T09:19:40.156Z,40.20
2018-10-11T09:22:08.576Z,41.09
2018-10-11T09:24:37.021Z,38.49
2018-10-11T09:27:05.493Z,37.47
2018-10-11T09:29:34.073Z,38.18
2018-10-11T09:32:02.593Z,40.01
2018-10-11T09:34:31.360Z,40.17
2018-10-11T09:37:00.039Z,37.24
2018-10-11T09:39:28.534Z,38.63
2018-10-11T09:41:57.048Z,36.10
2018-10-11T09:44:25.530Z,35.10
2018-10-11T09:46:54.158Z,33.39
2018-10-11T09:49:22.669Z,35.19
2018-10-11T09:51:51.230Z,35.66
2018-10-11T09:54:19.763Z,35.75
2018-10-11T09:57:25.639Z,35.96
2018-10-11T09:59:54.281Z,35.35
2018-10-11T10:02:23.709Z,33.40
2018-10-11T10:04:53.733Z,33.48
2018-10-11T10:07:22.429Z,32.18
2018-10-11T10:09:51.051Z,30.79
2018-10-11T10:12:19.674Z,29.95
2018-10-11T10:14:48.854Z,30.08
2018-10-11T10:17:17.408Z,28.07
2018-10-11T10:19:46.246Z,28.60
2018-10-11T10:22:14.745Z,27.50
2018-10-11T10:24:43.233Z,26.55
2018-10-11T10:27:11.853Z,26.40
2018-10-11T10:29:40.353Z,29.91
2018-10-11T10:32:08.996Z,32.03
2018-10-11T10:34:37.492Z,30.55
2018-10-11T10:37:06.180Z,33.38
2018-10-11T10:39:35.666Z,34.90
2018-10-11T10:42:08.210Z,36.37
2018-10-11T10:44:45.370Z,36.51
2018-10-11T10:47:16.720Z,37.85
2018-10-11T10:49:47.843Z,37.38
2018-10-11T10:52:23.111Z,36.83
2018-10-11T10:54:53.140Z,38.30
2018-10-11T10:57:22.346Z,38.18
2018-10-11T10:59:55.870Z,38.29
2018-10-11T11:02:24.659Z,37.71
2018-10-11T11:04:53.688Z,38.10
2018-10-11T11:07:24.930Z,37.21
2018-10-11T11:09:54.576Z,36.97
2018-10-11T11:12:23.238Z,37.49
2018-10-11T11:14:53.861Z,35.68
2018-10-11T11:17:22.525Z,34.89
2018-10-11T11:19:52.944Z,36.40
2018-10-11T11:22:21.687Z,37.09
2018-10-11T11:24:50.354Z,34.52
2018-10-11T11:27:19.157Z,31.50
2018-10-11T11:29:47.814Z,30.00
2018-10-11T11:32:19.561Z,28.33
2018-10-11T11:34:48.543Z,26.74
2018-10-11T11:37:20.410Z,27.62
2018-10-11T11:39:50.231Z,25.44
2018-10-11T11:42:20.548Z,24.36
2018-10-11T11:44:50.435Z,25.05
2018-10-11T11:47:21.245Z,24.50
2018-10-11T11:49:51.847Z,22.80
2018-10-11T11:52:24.456Z,23.98
2018-10-11T11:54:53.130Z,24.06
2018-10-11T11:57:21.539Z,25.85
2018-10-11T11:59:52.151Z,21.75
2018-10-11T12:02:21.863Z,24.58
2018-10-11T12:04:52.656Z,25.18
2018-10-11T12:07:21.413Z,26.03
2018-10-11T12:09:50.458Z,25.16
2018-10-11T12:13:08.695Z,24.65
2018-10-11T12:15:38.415Z,25.11
2018-10-11T12:18:07.669Z,25.91
2018-10-11T12:20:37.354Z,24.74
2018-10-11T12:23:06.929Z,26.02
2018-10-11T12:25:37.354Z,26.36
2018-10-11T12:28:05.942Z,26.67
2018-10-11T12:30:34.761Z,27.12
2018-10-11T12:33:04.135Z,27.44
2018-10-11T12:35:32.770Z,27.51
2018-10-11T12:38:03.556Z,28.44
2018-10-11T12:40:35.990Z,29.76
2018-10-11T12:43:04.713Z,29.41
2018-10-11T12:45:41.562Z,30.89
2018-10-11T12:48:11.564Z,32.01
2018-10-11T12:50:40.624Z,33.36
2018-10-11T12:53:11.087Z,34.85
2018-10-11T12:55:43.881Z,37.62
2018-10-11T12:58:12.551Z,37.72
2018-10-11T13:00:41.537Z,37.01
2018-10-11T13:03:16.469Z,36.76
2018-10-11T13:05:45.190Z,36.14
2018-10-11T13:08:15.548Z,37.04
2018-10-11T13:10:45.500Z,38.49
2018-10-11T13:13:17.201Z,37.43
2018-10-11T13:15:46.335Z,37.29
2018-10-11T13:18:15.788Z,38.23
2018-10-11T13:20:44.654Z,38.52
2018-10-11T13:23:18.527Z,38.42
2018-10-11T13:25:46.793Z,40.30
2018-10-11T13:28:16.492Z,40.26
2018-10-11T13:30:46.799Z,39.69
2018-10-11T13:33:30.940Z,41.42
2018-10-11T13:36:01.645Z,39.94
2018-10-11T13:38:32.760Z,39.76
2018-10-11T13:41:03.702Z,40.64
2018-10-11T13:43:31.540Z,40.07
2018-10-11T13:46:02.994Z,40.83
2018-10-11T13:48:32.510Z,40.47
2018-10-11T13:51:02.348Z,40.32
2018-10-11T13:53:31.136Z,41.30
2018-10-11T13:56:01.377Z,40.85
2018-10-11T13:58:30.152Z,40.49
2018-10-11T14:00:58.843Z,39.93
2018-10-11T14:03:27.475Z,40.71
2018-10-11T14:05:57.166Z,41.29
2018-10-11T14:08:27.448Z,41.57
2018-10-11T14:10:56.822Z,41.42
2018-10-11T14:13:29.030Z,41.85
2018-10-11T14:15:57.886Z,41.19
2018-10-11T14:18:29.063Z,42.14
2018-10-11T14:21:00.093Z,41.81
2018-10-11T14:23:29.956Z,42.65
2018-10-11T14:25:58.335Z,42.98
2018-10-11T14:28:29.079Z,41.18
2018-10-11T14:30:57.686Z,42.20
2018-10-11T14:33:28.357Z,42.94
2018-10-11T14:35:57.553Z,40.93
2018-10-11T14:38:30.508Z,41.31
2018-10-11T14:41:00.144Z,42.41
2018-10-11T14:43:33.162Z,41.14
2018-10-11T14:46:02.814Z,41.12
2018-10-11T14:48:32.433Z,40.60
2018-10-11T14:51:01.603Z,40.74
2018-10-11T14:53:30.317Z,41.77
2018-10-11T14:56:00.478Z,40.68
2018-10-11T14:58:31.628Z,41.25
2018-10-11T15:01:00.510Z,40.62
2018-10-11T15:03:29.701Z,39.96
2018-10-11T15:05:58.438Z,40.44
2018-10-11T15:08:28.833Z,40.87
2018-10-11T15:10:59.083Z,41.48
2018-10-11T15:13:28.541Z,40.71
2018-10-11T15:15:57.277Z,41.52
2018-10-11T15:18:25.825Z,41.99
2018-10-11T15:20:55.325Z,42.72
2018-10-11T15:23:24.830Z,43.58
2018-10-11T15:25:54.007Z,43.34
2018-10-11T15:28:22.534Z,43.82
2018-10-11T15:30:52.212Z,43.26
2018-10-11T15:33:21.726Z,44.03
2018-10-11T15:35:52.261Z,43.77
2018-10-11T15:38:20.990Z,45.01
2018-10-11T15:40:51.859Z,46.42
2018-10-11T15:43:20.390Z,44.68
2018-10-11T15:45:50.784Z,44.77
2018-10-11T15:48:21.036Z,45.14
2018-10-11T15:50:49.704Z,44.23
2018-10-11T15:53:18.469Z,45.27
2018-10-11T15:55:49.752Z,44.88
2018-10-11T15:58:18.872Z,46.55
2018-10-11T16:00:47.354Z,45.68
2018-10-11T16:03:15.963Z,47.64
2018-10-11T16:05:50.403Z,46.12
2018-10-11T16:08:19.148Z,46.05
2018-10-11T16:10:47.785Z,46.43
2018-10-11T16:13:16.820Z,44.63
2018-10-11T16:15:45.343Z,44.80
2018-10-11T16:18:14.685Z,45.02
2018-10-11T16:20:43.203Z,46.09
2018-10-11T16:23:13.109Z,45.13
2018-10-11T16:25:42.269Z,44.41
2018-10-11T16:28:10.900Z,44.33
2018-10-11T16:30:41.244Z,44.54
2018-10-11T16:33:10.936Z,44.50
2018-10-11T16:35:39.441Z,43.44
2018-10-11T16:38:09.235Z,44.45
2018-10-11T16:40:38.781Z,43.65
2018-10-11T16:43:07.639Z,46.82
2018-10-11T16:45:36.172Z,44.29
2018-10-11T16:48:06.586Z,43.83
2018-10-11T16:50:34.986Z,45.90
2018-10-11T16:53:05.512Z,45.45
2018-10-11T16:55:36.815Z,45.59
2018-10-11T16:58:06.256Z,45.86
2018-10-11T17:00:38.456Z,45.62
2018-10-11T17:03:07.679Z,46.48
2018-10-11T17:05:36.339Z,46.94
2018-10-11T17:08:05.682Z,47.14
2018-10-11T17:10:35.873Z,48.43
2018-10-11T17:13:04.324Z,45.89
2018-10-11T17:15:32.840Z,48.17
2018-10-11T17:18:02.154Z,48.49
2018-10-11T17:20:30.729Z,48.49
2018-10-11T17:22:59.237Z,48.23
2018-10-11T17:25:27.772Z,47.05
2018-10-11T17:28:01.257Z,46.44
2018-10-11T17:30:32.048Z,47.05
2018-10-11T17:33:00.880Z,47.51
2018-10-11T17:35:30.406Z,48.24
2018-10-11T17:37:59.245Z,47.39
2018-10-11T17:40:29.400Z,48.06
2018-10-11T17:42:59.773Z,47.46
2018-10-11T17:45:30.171Z,47.42
2018-10-11T17:47:58.836Z,47.50
2018-10-11T17:50:27.475Z,46.81
2018-10-11T17:53:01.579Z,47.57
2018-10-11T17:55:30.991Z,48.99
2018-10-11T17:58:00.033Z,47.35
2018-10-11T18:00:30.154Z,48.39
2018-10-11T18:02:59.423Z,47.06
2018-10-11T18:05:28.076Z,48.02
2018-10-11T18:07:56.642Z,47.53
2018-10-11T18:10:26.512Z,48.04
2018-10-11T18:12:56.233Z,48.96
2018-10-11T18:15:26.275Z,49.20
2018-10-11T18:17:54.851Z,48.44
2018-10-11T18:20:24.635Z,47.10
2018-10-11T18:22:54.507Z,47.73
2018-10-11T18:25:24.294Z,47.78
2018-10-11T18:27:52.961Z,47.53
2018-10-11T18:30:21.945Z,47.81
2018-10-11T18:32:50.933Z,48.66
2018-10-11T18:35:19.851Z,49.42
2018-10-11T18:37:49.791Z,49.55
2018-10-11T18:40:21.183Z,47.63
2018-10-11T18:42:49.810Z,47.86
2018-10-11T18:45:19.729Z,47.45
2018-10-11T18:47:51.667Z,47.16
2018-10-11T18:50:21.554Z,47.30
2018-10-11T18:52:54.416Z,47.55
2018-10-11T18:55:27.851Z,48.95
2018-10-11T18:57:56.825Z,47.18
2018-10-11T19:00:25.793Z,47.97
2018-10-11T19:02:54.642Z,46.44
2018-10-11T19:05:23.197Z,47.10
2018-10-11T19:07:51.986Z,48.10
2018-10-11T19:10:20.649Z,47.66
2018-10-11T19:12:50.472Z,46.87
2018-10-11T19:15:19.101Z,48.20
2018-10-11T19:17:52.966Z,47.19
2018-10-11T19:20:21.869Z,47.26
2018-10-11T19:22:52.289Z,47.96
2018-10-11T19:25:20.900Z,46.66
2018-10-11T19:27:50.278Z,47.64
2018-10-11T19:30:20.005Z,47.26
2018-10-11T19:32:48.712Z,47.19
2018-10-11T19:35:19.244Z,48.07
2018-10-11T19:37:48.954Z,47.74
2018-10-11T19:40:18.902Z,47.93
2018-10-11T19:42:51.570Z,48.40
2018-10-11T19:45:20.288Z,47.54
2018-10-11T19:47:50.199Z,48.08
2018-10-11T19:50:18.962Z,50.05
2018-10-11T19:52:48.462Z,49.02
2018-10-11T19:55:17.098Z,50.28
2018-10-11T19:57:45.703Z,49.76
2018-10-11T20:00:14.489Z,48.56
2018-10-11T20:02:43.124Z,48.51
2018-10-11T20:05:11.666Z,48.21
2018-10-11T20:07:40.416Z,48.31
2018-10-11T20:10:09.634Z,48.32
2018-10-11T20:12:38.368Z,47.66
2018-10-11T20:15:07.152Z,48.23
2018-10-11T20:17:35.774Z,48.97
2018-10-11T20:20:05.243Z,48.86
2018-10-11T20:22:35.727Z,48.44
2018-10-11T20:25:04.867Z,47.32
2018-10-11T20:27:33.554Z,48.83
2018-10-11T20:30:02.047Z,49.29
2018-10-11T20:32:31.042Z,49.12
2018-10-11T20:34:59.680Z,50.65
2018-10-11T20:37:28.357Z,49.66
2018-10-11T20:39:57.027Z,50.71
2018-10-11T20:42:26.064Z,50.76
2018-10-11T20:44:55.841Z,48.79
2018-10-11T20:47:24.305Z,50.23
2018-10-11T20:49:52.918Z,50.16
2018-10-11T20:52:21.421Z,51.23
2018-10-11T20:54:51.211Z,52.20
2018-10-11T20:57:19.894Z,51.01
2018-10-11T20:59:52.523Z,51.83
2018-10-11T21:02:21.002Z,52.80
2018-10-11T21:04:50.834Z,52.49
2018-10-11T21:07:19.392Z,52.61
2018-10-11T21:09:47.878Z,51.88
2018-10-11T21:12:16.278Z,51.97
2018-10-11T21:14:46.844Z,52.49
2018-10-11T21:17:15.735Z,51.67
2018-10-11T21:19:44.320Z,51.71
2018-10-11T21:22:12.869Z,51.03
2018-10-11T21:24:41.495Z,49.60
2018-10-11T21:27:10.107Z,50.65
2018-10-11T21:29:38.671Z,50.81
2018-10-11T21:32:07.653Z,50.20
2018-10-11T21:34:36.097Z,49.69
2018-10-11T21:37:04.753Z,50.08
2018-10-11T21:39:33.347Z,49.51
2018-10-11T21:42:01.888Z,49.34
2018-10-11T21:44:31.005Z,48.97
2018-10-11T21:46:59.946Z,49.46
2018-10-11T21:49:32.579Z,49.08
2018-10-11T21:52:01.189Z,47.82
2018-10-11T21:54:29.692Z,47.22
2018-10-11T21:56:58.237Z,47.28
2018-10-11T21:59:26.825Z,47.96
2018-10-11T22:01:56.240Z,47.03
2018-10-11T22:04:24.790Z,47.26
2018-10-11T22:06:53.483Z,46.82
2018-10-11T22:09:22.056Z,46.17
2018-10-11T22:11:50.533Z,46.30
2018-10-11T22:14:18.973Z,45.78
2018-10-11T22:16:47.486Z,44.68
2018-10-11T22:19:17.989Z,44.55
2018-10-11T22:21:46.493Z,45.16
2018-10-11T22:24:15.018Z,45.29
2018-10-11T22:26:43.506Z,45.60
2018-10-11T22:29:12.117Z,45.56
2018-10-11T22:31:40.548Z,45.57
2018-10-11T22:34:09.067Z,45.87
2018-10-11T22:36:37.823Z,46.90
2018-10-11T22:39:08.466Z,45.70
2018-10-11T22:41:38.135Z,47.53
2018-10-11T22:44:07.001Z,47.48
2018-10-11T22:46:35.519Z,47.56
2018-10-11T22:49:05.198Z,48.23
2018-10-11T22:51:34.027Z,49.24
2018-10-11T22:54:02.997Z,50.51
2018-10-11T22:56:31.526Z,50.16
2018-10-11T22:59:00.319Z,49.60
2018-10-11T23:01:29.955Z,49.31
2018-10-11T23:03:58.595Z,49.47
2018-10-11T23:06:27.169Z,49.78
2018-10-11T23:08:55.844Z,49.51
2018-10-11T23:11:25.788Z,49.85
2018-10-11T23:13:54.461Z,49.91
2018-10-11T23:16:24.282Z,50.29
2018-10-11T23:18:52.878Z,50.69
2018-10-11T23:21:22.489Z,50.28
2018-10-11T23:23:52.727Z,49.56
2018-10-11T23:26:22.465Z,50.63
2018-10-11T23:28:50.982Z,49.55
2018-10-11T23:31:20.627Z,50.96
2018-10-11T23:33:49.195Z,48.50
2018-10-11T23:36:17.689Z,49.70
2018-10-11T23:38:46.897Z,49.99
2018-10-11T23:41:15.465Z,51.04
2018-10-11T23:43:45.556Z,51.99
2018-10-11T23:46:15.108Z,52.13
2018-10-11T23:48:43.715Z,52.89
2018-10-11T23:51:12.344Z,52.57
2018-10-11T23:53:40.789Z,51.43
2018-10-11T23:56:10.285Z,50.80
2018-10-11T23:58:38.866Z,51.92
